sensor_id;sensor_type;location;lat;lon;timestamp;P1;durP1;ratioP1;P2;durP2;ratioP2
23555;SDS011;11956;53.184;8.578;2022-08-25T00:00:07;7.95;;;3.20;;
23555;SDS011;11956;53.184;8.578;2022-08-25T00:03:09;4.68;;;2.90;;
23555;SDS011;11956;53.184;8.578;2022-08-25T00:09:16;6.90;;;2.75;;
23555;SDS011;11956;53.184;8.578;2022-08-25T00:12:19;5.93;;;2.90;;
23555;SDS011;11956;53.184;8.578;2022-08-25T00:15:20;4.63;;;2.88;;
23555;SDS011;11956;53.184;8.578;2022-08-25T00:18:23;4.78;;;2.90;;
23555;SDS011;11956;53.184;8.578;2022-08-25T00:21:24;4.60;;;3.08;;
23555;SDS011;11956;53.184;8.578;2022-08-25T00:24:26;6.15;;;3.00;;
23555;SDS011;11956;53.184;8.578;2022-08-25T00:27:27;5.70;;;2.88;;
23555;SDS011;11956;53.184;8.578;2022-08-25T00:30:28;3.33;;;2.80;;
23555;SDS011;11956;53.184;8.578;2022-08-25T00:33:30;4.20;;;2.90;;
23555;SDS011;11956;53.184;8.578;2022-08-25T00:36:33;6.07;;;3.70;;
23555;SDS011;11956;53.184;8.578;2022-08-25T00:39:35;4.57;;;3.00;;
23555;SDS011;11956;53.184;8.578;2022-08-25T00:42:37;6.10;;;2.88;;
23555;SDS011;11956;53.184;8.578;2022-08-25T00:45:39;5.53;;;2.85;;
23555;SDS011;11956;53.184;8.578;2022-08-25T00:48:40;5.65;;;3.38;;
23555;SDS011;11956;53.184;8.578;2022-08-25T00:51:49;6.07;;;3.03;;
23555;SDS011;11956;53.184;8.578;2022-08-25T00:58:11;5.47;;;3.38;;
23555;SDS011;11956;53.184;8.578;2022-08-25T01:01:20;5.50;;;3.42;;
23555;SDS011;11956;53.184;8.578;2022-08-25T01:04:21;5.78;;;3.45;;
23555;SDS011;11956;53.184;8.578;2022-08-25T01:07:22;6.32;;;3.10;;
23555;SDS011;11956;53.184;8.578;2022-08-25T01:10:23;5.30;;;3.30;;
23555;SDS011;11956;53.184;8.578;2022-08-25T01:13:29;5.32;;;3.33;;
23555;SDS011;11956;53.184;8.578;2022-08-25T01:16:36;5.82;;;3.38;;
23555;SDS011;11956;53.184;8.578;2022-08-25T01:19:38;5.90;;;3.30;;
23555;SDS011;11956;53.184;8.578;2022-08-25T01:22:39;4.07;;;3.17;;
23555;SDS011;11956;53.184;8.578;2022-08-25T01:28:52;6.05;;;3.42;;
23555;SDS011;11956;53.184;8.578;2022-08-25T01:32:13;6.40;;;3.83;;
23555;SDS011;11956;53.184;8.578;2022-08-25T01:35:14;5.13;;;3.70;;
23555;SDS011;11956;53.184;8.578;2022-08-25T01:38:17;6.82;;;3.47;;
23555;SDS011;11956;53.184;8.578;2022-08-25T01:44:30;6.22;;;4.10;;
23555;SDS011;11956;53.184;8.578;2022-08-25T01:47:35;8.38;;;4.20;;
23555;SDS011;11956;53.184;8.578;2022-08-25T01:50:37;5.35;;;3.90;;
23555;SDS011;11956;53.184;8.578;2022-08-25T01:53:39;7.90;;;4.18;;
23555;SDS011;11956;53.184;8.578;2022-08-25T01:56:40;5.93;;;4.10;;
23555;SDS011;11956;53.184;8.578;2022-08-25T01:59:41;7.85;;;4.35;;
23555;SDS011;11956;53.184;8.578;2022-08-25T02:02:42;6.10;;;4.07;;
23555;SDS011;11956;53.184;8.578;2022-08-25T02:05:43;6.13;;;4.35;;
23555;SDS011;11956;53.184;8.578;2022-08-25T02:08:44;5.70;;;4.22;;
23555;SDS011;11956;53.184;8.578;2022-08-25T02:11:45;7.00;;;4.55;;
23555;SDS011;11956;53.184;8.578;2022-08-25T02:14:47;7.32;;;4.55;;
23555;SDS011;11956;53.184;8.578;2022-08-25T02:17:47;5.40;;;4.20;;
23555;SDS011;11956;53.184;8.578;2022-08-25T02:20:48;7.38;;;4.00;;
23555;SDS011;11956;53.184;8.578;2022-08-25T02:23:49;5.38;;;4.10;;
23555;SDS011;11956;53.184;8.578;2022-08-25T02:26:50;7.07;;;4.78;;
23555;SDS011;11956;53.184;8.578;2022-08-25T02:29:51;7.43;;;4.55;;
23555;SDS011;11956;53.184;8.578;2022-08-25T02:32:52;9.18;;;4.53;;
23555;SDS011;11956;53.184;8.578;2022-08-25T02:35:55;9.45;;;5.10;;
23555;SDS011;11956;53.184;8.578;2022-08-25T02:38:59;6.28;;;5.07;;
23555;SDS011;11956;53.184;8.578;2022-08-25T02:42:00;6.65;;;5.28;;
23555;SDS011;11956;53.184;8.578;2022-08-25T02:45:02;8.65;;;5.35;;
23555;SDS011;11956;53.184;8.578;2022-08-25T02:48:06;9.00;;;5.07;;
23555;SDS011;11956;53.184;8.578;2022-08-25T02:51:08;5.97;;;5.20;;
23555;SDS011;11956;53.184;8.578;2022-08-25T02:54:11;5.85;;;4.85;;
23555;SDS011;11956;53.184;8.578;2022-08-25T02:57:12;8.30;;;5.63;;
23555;SDS011;11956;53.184;8.578;2022-08-25T03:00:15;8.43;;;5.38;;
23555;SDS011;11956;53.184;8.578;2022-08-25T03:03:17;8.65;;;5.68;;
23555;SDS011;11956;53.184;8.578;2022-08-25T03:06:19;10.65;;;5.78;;
23555;SDS011;11956;53.184;8.578;2022-08-25T03:09:25;8.18;;;5.80;;
23555;SDS011;11956;53.184;8.578;2022-08-25T03:12:26;10.82;;;6.57;;
23555;SDS011;11956;53.184;8.578;2022-08-25T03:15:28;8.98;;;6.88;;
23555;SDS011;11956;53.184;8.578;2022-08-25T03:18:31;11.70;;;6.97;;
23555;SDS011;11956;53.184;8.578;2022-08-25T03:21:31;10.27;;;6.72;;
23555;SDS011;11956;53.184;8.578;2022-08-25T03:24:32;8.02;;;7.22;;
23555;SDS011;11956;53.184;8.578;2022-08-25T03:27:33;7.80;;;6.72;;
23555;SDS011;11956;53.184;8.578;2022-08-25T03:30:34;10.40;;;6.80;;
23555;SDS011;11956;53.184;8.578;2022-08-25T03:33:35;9.63;;;6.70;;
23555;SDS011;11956;53.184;8.578;2022-08-25T03:36:37;10.80;;;7.10;;
23555;SDS011;11956;53.184;8.578;2022-08-25T03:39:38;10.48;;;8.00;;
23555;SDS011;11956;53.184;8.578;2022-08-25T03:42:40;11.20;;;8.63;;
23555;SDS011;11956;53.184;8.578;2022-08-25T03:45:45;10.70;;;7.63;;
23555;SDS011;11956;53.184;8.578;2022-08-25T03:48:47;10.38;;;7.70;;
23555;SDS011;11956;53.184;8.578;2022-08-25T03:51:49;12.15;;;8.13;;
23555;SDS011;11956;53.184;8.578;2022-08-25T03:54:52;13.10;;;8.45;;
23555;SDS011;11956;53.184;8.578;2022-08-25T03:57:53;12.70;;;8.48;;
23555;SDS011;11956;53.184;8.578;2022-08-25T04:00:54;12.68;;;9.05;;
23555;SDS011;11956;53.184;8.578;2022-08-25T04:03:59;10.65;;;8.35;;
23555;SDS011;11956;53.184;8.578;2022-08-25T04:07:00;10.00;;;8.07;;
23555;SDS011;11956;53.184;8.578;2022-08-25T04:10:01;13.93;;;9.40;;
23555;SDS011;11956;53.184;8.578;2022-08-25T04:13:04;11.57;;;8.48;;
23555;SDS011;11956;53.184;8.578;2022-08-25T04:16:09;10.80;;;8.98;;
23555;SDS011;11956;53.184;8.578;2022-08-25T04:19:13;11.50;;;9.73;;
23555;SDS011;11956;53.184;8.578;2022-08-25T04:22:14;10.40;;;9.05;;
23555;SDS011;11956;53.184;8.578;2022-08-25T04:25:15;13.25;;;9.40;;
23555;SDS011;11956;53.184;8.578;2022-08-25T04:28:16;10.77;;;9.35;;
23555;SDS011;11956;53.184;8.578;2022-08-25T04:31:18;12.20;;;9.10;;
23555;SDS011;11956;53.184;8.578;2022-08-25T04:34:22;11.40;;;9.70;;
23555;SDS011;11956;53.184;8.578;2022-08-25T04:37:25;11.80;;;9.40;;
23555;SDS011;11956;53.184;8.578;2022-08-25T04:40:26;12.23;;;9.65;;
23555;SDS011;11956;53.184;8.578;2022-08-25T04:43:28;14.63;;;9.95;;
23555;SDS011;11956;53.184;8.578;2022-08-25T04:46:31;17.08;;;10.35;;
23555;SDS011;11956;53.184;8.578;2022-08-25T04:49:34;13.25;;;10.02;;
23555;SDS011;11956;53.184;8.578;2022-08-25T04:52:36;11.20;;;9.98;;
23555;SDS011;11956;53.184;8.578;2022-08-25T04:55:41;15.35;;;9.82;;
23555;SDS011;11956;53.184;8.578;2022-08-25T04:58:44;14.30;;;10.25;;
23555;SDS011;11956;53.184;8.578;2022-08-25T05:01:46;14.20;;;10.40;;
23555;SDS011;11956;53.184;8.578;2022-08-25T05:04:47;12.65;;;9.32;;
23555;SDS011;11956;53.184;8.578;2022-08-25T05:07:48;12.82;;;9.85;;
23555;SDS011;11956;53.184;8.578;2022-08-25T05:10:49;10.75;;;9.48;;
23555;SDS011;11956;53.184;8.578;2022-08-25T05:13:50;16.33;;;10.80;;
23555;SDS011;11956;53.184;8.578;2022-08-25T05:16:54;12.93;;;10.32;;
23555;SDS011;11956;53.184;8.578;2022-08-25T05:19:55;14.52;;;10.57;;
23555;SDS011;11956;53.184;8.578;2022-08-25T05:22:57;14.23;;;9.57;;
23555;SDS011;11956;53.184;8.578;2022-08-25T05:26:02;14.68;;;10.30;;
23555;SDS011;11956;53.184;8.578;2022-08-25T05:29:11;11.05;;;8.50;;
23555;SDS011;11956;53.184;8.578;2022-08-25T05:32:12;13.48;;;9.18;;
23555;SDS011;11956;53.184;8.578;2022-08-25T05:35:13;10.52;;;7.95;;
23555;SDS011;11956;53.184;8.578;2022-08-25T05:38:15;12.35;;;8.52;;
23555;SDS011;11956;53.184;8.578;2022-08-25T05:41:17;11.02;;;9.25;;
23555;SDS011;11956;53.184;8.578;2022-08-25T05:44:20;11.70;;;8.05;;
23555;SDS011;11956;53.184;8.578;2022-08-25T05:47:21;10.02;;;7.95;;
23555;SDS011;11956;53.184;8.578;2022-08-25T05:50:22;11.43;;;8.15;;
23555;SDS011;11956;53.184;8.578;2022-08-25T05:53:24;12.50;;;7.97;;
23555;SDS011;11956;53.184;8.578;2022-08-25T05:56:26;13.00;;;8.85;;
23555;SDS011;11956;53.184;8.578;2022-08-25T05:59:28;10.52;;;7.72;;
23555;SDS011;11956;53.184;8.578;2022-08-25T06:02:29;10.45;;;8.90;;
23555;SDS011;11956;53.184;8.578;2022-08-25T06:05:46;13.20;;;9.23;;
23555;SDS011;11956;53.184;8.578;2022-08-25T06:08:47;10.98;;;8.10;;
23555;SDS011;11956;53.184;8.578;2022-08-25T06:11:48;13.15;;;8.55;;
23555;SDS011;11956;53.184;8.578;2022-08-25T06:14:49;12.23;;;8.63;;
23555;SDS011;11956;53.184;8.578;2022-08-25T06:17:51;12.93;;;8.35;;
23555;SDS011;11956;53.184;8.578;2022-08-25T06:20:53;13.55;;;8.02;;
23555;SDS011;11956;53.184;8.578;2022-08-25T06:23:54;12.25;;;9.13;;
23555;SDS011;11956;53.184;8.578;2022-08-25T06:26:55;14.80;;;8.82;;
23555;SDS011;11956;53.184;8.578;2022-08-25T06:29:56;10.85;;;7.97;;
23555;SDS011;11956;53.184;8.578;2022-08-25T06:32:57;11.02;;;7.35;;
23555;SDS011;11956;53.184;8.578;2022-08-25T06:35:58;10.77;;;7.65;;
23555;SDS011;11956;53.184;8.578;2022-08-25T06:39:00;13.55;;;8.93;;
23555;SDS011;11956;53.184;8.578;2022-08-25T06:42:01;12.82;;;8.88;;
23555;SDS011;11956;53.184;8.578;2022-08-25T06:45:03;9.73;;;8.20;;
23555;SDS011;11956;53.184;8.578;2022-08-25T06:48:05;10.37;;;7.77;;
23555;SDS011;11956;53.184;8.578;2022-08-25T06:51:07;11.30;;;7.35;;
23555;SDS011;11956;53.184;8.578;2022-08-25T06:54:10;10.38;;;7.90;;
23555;SDS011;11956;53.184;8.578;2022-08-25T06:57:11;10.00;;;7.43;;
23555;SDS011;11956;53.184;8.578;2022-08-25T07:00:12;9.68;;;7.57;;
23555;SDS011;11956;53.184;8.578;2022-08-25T07:03:14;10.45;;;8.45;;
23555;SDS011;11956;53.184;8.578;2022-08-25T07:06:15;11.98;;;6.75;;
23555;SDS011;11956;53.184;8.578;2022-08-25T07:09:17;12.05;;;9.25;;
23555;SDS011;11956;53.184;8.578;2022-08-25T07:12:19;13.77;;;9.25;;
23555;SDS011;11956;53.184;8.578;2022-08-25T07:15:20;12.38;;;8.43;;
23555;SDS011;11956;53.184;8.578;2022-08-25T07:18:21;12.48;;;8.77;;
23555;SDS011;11956;53.184;8.578;2022-08-25T07:21:22;12.63;;;7.78;;
23555;SDS011;11956;53.184;8.578;2022-08-25T07:24:25;10.40;;;9.02;;
23555;SDS011;11956;53.184;8.578;2022-08-25T07:27:25;12.13;;;8.60;;
23555;SDS011;11956;53.184;8.578;2022-08-25T07:30:26;8.75;;;6.57;;
23555;SDS011;11956;53.184;8.578;2022-08-25T07:33:27;10.70;;;8.52;;
23555;SDS011;11956;53.184;8.578;2022-08-25T07:36:31;11.52;;;7.47;;
23555;SDS011;11956;53.184;8.578;2022-08-25T07:39:33;10.57;;;7.35;;
23555;SDS011;11956;53.184;8.578;2022-08-25T07:42:34;13.88;;;8.00;;
23555;SDS011;11956;53.184;8.578;2022-08-25T07:45:36;11.00;;;8.40;;
23555;SDS011;11956;53.184;8.578;2022-08-25T07:48:39;8.35;;;6.53;;
23555;SDS011;11956;53.184;8.578;2022-08-25T07:51:40;15.80;;;8.77;;
23555;SDS011;11956;53.184;8.578;2022-08-25T07:54:41;11.55;;;7.43;;
23555;SDS011;11956;53.184;8.578;2022-08-25T07:57:42;8.38;;;6.63;;
23555;SDS011;11956;53.184;8.578;2022-08-25T08:00:46;11.70;;;8.25;;
23555;SDS011;11956;53.184;8.578;2022-08-25T08:03:47;13.55;;;7.82;;
23555;SDS011;11956;53.184;8.578;2022-08-25T08:06:49;12.52;;;8.95;;
23555;SDS011;11956;53.184;8.578;2022-08-25T08:09:50;10.65;;;6.53;;
23555;SDS011;11956;53.184;8.578;2022-08-25T08:12:52;9.00;;;5.50;;
23555;SDS011;11956;53.184;8.578;2022-08-25T08:15:53;8.27;;;6.47;;
23555;SDS011;11956;53.184;8.578;2022-08-25T08:18:55;9.93;;;6.70;;
23555;SDS011;11956;53.184;8.578;2022-08-25T08:21:57;10.85;;;7.13;;
23555;SDS011;11956;53.184;8.578;2022-08-25T08:24:58;9.73;;;7.72;;
23555;SDS011;11956;53.184;8.578;2022-08-25T08:28:01;12.02;;;7.53;;
23555;SDS011;11956;53.184;8.578;2022-08-25T08:31:02;8.80;;;6.93;;
23555;SDS011;11956;53.184;8.578;2022-08-25T08:34:03;10.68;;;5.88;;
23555;SDS011;11956;53.184;8.578;2022-08-25T08:37:05;8.00;;;6.28;;
23555;SDS011;11956;53.184;8.578;2022-08-25T08:40:08;13.15;;;7.07;;
23555;SDS011;11956;53.184;8.578;2022-08-25T08:43:10;9.13;;;7.28;;
23555;SDS011;11956;53.184;8.578;2022-08-25T08:46:17;12.10;;;7.15;;
23555;SDS011;11956;53.184;8.578;2022-08-25T08:49:47;10.48;;;7.43;;
23555;SDS011;11956;53.184;8.578;2022-08-25T08:56:08;10.10;;;7.00;;
23555;SDS011;11956;53.184;8.578;2022-08-25T08:59:56;8.05;;;5.63;;
23555;SDS011;11956;53.184;8.578;2022-08-25T09:03:06;10.65;;;5.97;;
23555;SDS011;11956;53.184;8.578;2022-08-25T09:06:37;9.50;;;7.05;;
23555;SDS011;11956;53.184;8.578;2022-08-25T09:09:47;9.00;;;6.07;;
23555;SDS011;11956;53.184;8.578;2022-08-25T09:12:49;10.45;;;6.10;;
23555;SDS011;11956;53.184;8.578;2022-08-25T09:16:28;8.00;;;6.20;;
23555;SDS011;11956;53.184;8.578;2022-08-25T09:30:25;9.63;;;6.43;;
23555;SDS011;11956;53.184;8.578;2022-08-25T09:33:37;13.93;;;6.90;;
23555;SDS011;11956;53.184;8.578;2022-08-25T09:36:38;13.05;;;7.22;;
23555;SDS011;11956;53.184;8.578;2022-08-25T09:39:39;9.63;;;5.97;;
23555;SDS011;11956;53.184;8.578;2022-08-25T09:42:45;10.55;;;6.20;;
23555;SDS011;11956;53.184;8.578;2022-08-25T09:45:56;13.25;;;6.57;;
23555;SDS011;11956;53.184;8.578;2022-08-25T09:49:30;9.85;;;6.70;;
23555;SDS011;11956;53.184;8.578;2022-08-25T09:52:43;9.38;;;6.03;;
23555;SDS011;11956;53.184;8.578;2022-08-25T09:55:45;8.68;;;6.20;;
23555;SDS011;11956;53.184;8.578;2022-08-25T09:58:55;6.35;;;5.70;;
23555;SDS011;11956;53.184;8.578;2022-08-25T10:02:26;8.52;;;5.60;;
23555;SDS011;11956;53.184;8.578;2022-08-25T10:05:28;8.35;;;5.43;;
23555;SDS011;11956;53.184;8.578;2022-08-25T10:11:50;8.25;;;5.43;;
23555;SDS011;11956;53.184;8.578;2022-08-25T10:14:51;9.82;;;5.60;;
23555;SDS011;11956;53.184;8.578;2022-08-25T10:17:52;7.40;;;5.40;;
23555;SDS011;11956;53.184;8.578;2022-08-25T10:24:13;8.90;;;6.00;;
23555;SDS011;11956;53.184;8.578;2022-08-25T10:27:32;8.75;;;6.15;;
23555;SDS011;11956;53.184;8.578;2022-08-25T10:48:42;9.70;;;5.95;;
23555;SDS011;11956;53.184;8.578;2022-08-25T10:51:57;8.00;;;5.60;;
23555;SDS011;11956;53.184;8.578;2022-08-25T10:55:16;12.18;;;6.65;;
23555;SDS011;11956;53.184;8.578;2022-08-25T11:08:55;8.75;;;6.00;;
23555;SDS011;11956;53.184;8.578;2022-08-25T11:12:04;11.32;;;6.00;;
23555;SDS011;11956;53.184;8.578;2022-08-25T11:15:20;9.80;;;6.00;;
23555;SDS011;11956;53.184;8.578;2022-08-25T11:18:28;11.13;;;6.40;;
23555;SDS011;11956;53.184;8.578;2022-08-25T11:21:54;9.00;;;6.05;;
23555;SDS011;11956;53.184;8.578;2022-08-25T11:25:18;8.02;;;6.13;;
23555;SDS011;11956;53.184;8.578;2022-08-25T11:31:42;10.20;;;5.40;;
23555;SDS011;11956;53.184;8.578;2022-08-25T11:34:48;10.13;;;5.32;;
23555;SDS011;11956;53.184;8.578;2022-08-25T11:37:56;10.18;;;5.47;;
23555;SDS011;11956;53.184;8.578;2022-08-25T11:44:42;8.50;;;5.65;;
23555;SDS011;11956;53.184;8.578;2022-08-25T11:51:39;8.57;;;5.25;;
23555;SDS011;11956;53.184;8.578;2022-08-25T11:54:44;9.15;;;5.25;;
23555;SDS011;11956;53.184;8.578;2022-08-25T11:57:48;5.50;;;4.60;;
23555;SDS011;11956;53.184;8.578;2022-08-25T12:00:51;6.22;;;5.20;;
23555;SDS011;11956;53.184;8.578;2022-08-25T12:04:09;6.75;;;5.15;;
23555;SDS011;11956;53.184;8.578;2022-08-25T12:07:15;7.50;;;4.75;;
23555;SDS011;11956;53.184;8.578;2022-08-25T12:10:26;7.53;;;5.35;;
23555;SDS011;11956;53.184;8.578;2022-08-25T12:17:25;8.23;;;4.97;;
23555;SDS011;11956;53.184;8.578;2022-08-25T12:30:46;11.70;;;5.80;;
23555;SDS011;11956;53.184;8.578;2022-08-25T12:40:21;8.00;;;5.43;;
23555;SDS011;11956;53.184;8.578;2022-08-25T12:43:45;7.57;;;4.82;;
23555;SDS011;11956;53.184;8.578;2022-08-25T12:46:51;9.35;;;5.10;;
23555;SDS011;11956;53.184;8.578;2022-08-25T12:53:41;10.65;;;5.10;;
23555;SDS011;11956;53.184;8.578;2022-08-25T12:56:54;10.10;;;5.63;;
23555;SDS011;11956;53.184;8.578;2022-08-25T13:00:00;10.35;;;5.80;;
23555;SDS011;11956;53.184;8.578;2022-08-25T13:06:47;11.13;;;5.60;;
23555;SDS011;11956;53.184;8.578;2022-08-25T13:16:57;9.77;;;5.50;;
23555;SDS011;11956;53.184;8.578;2022-08-25T13:23:26;8.07;;;5.85;;
23555;SDS011;11956;53.184;8.578;2022-08-25T13:26:30;7.93;;;5.55;;
23555;SDS011;11956;53.184;8.578;2022-08-25T13:29:47;10.35;;;6.22;;
23555;SDS011;11956;53.184;8.578;2022-08-25T13:32:55;8.80;;;5.85;;
23555;SDS011;11956;53.184;8.578;2022-08-25T13:35:57;7.32;;;5.22;;
23555;SDS011;11956;53.184;8.578;2022-08-25T13:39:19;8.27;;;5.70;;
23555;SDS011;11956;53.184;8.578;2022-08-25T13:42:23;8.15;;;5.55;;
23555;SDS011;11956;53.184;8.578;2022-08-25T13:45:27;11.27;;;6.00;;
23555;SDS011;11956;53.184;8.578;2022-08-25T13:48:35;9.48;;;5.72;;
23555;SDS011;11956;53.184;8.578;2022-08-25T13:51:48;8.38;;;5.30;;
23555;SDS011;11956;53.184;8.578;2022-08-25T13:54:56;8.57;;;5.72;;
23555;SDS011;11956;53.184;8.578;2022-08-25T13:57:59;9.13;;;5.55;;
23555;SDS011;11956;53.184;8.578;2022-08-25T14:01:13;10.27;;;5.80;;
23555;SDS011;11956;53.184;8.578;2022-08-25T14:07:36;9.07;;;5.28;;
23555;SDS011;11956;53.184;8.578;2022-08-25T14:10:39;8.90;;;5.85;;
23555;SDS011;11956;53.184;8.578;2022-08-25T14:13:43;7.50;;;5.45;;
23555;SDS011;11956;53.184;8.578;2022-08-25T14:16:49;9.85;;;6.07;;
23555;SDS011;11956;53.184;8.578;2022-08-25T14:19:57;9.63;;;5.57;;
23555;SDS011;11956;53.184;8.578;2022-08-25T14:23:05;8.30;;;5.97;;
23555;SDS011;11956;53.184;8.578;2022-08-25T14:26:13;9.75;;;5.68;;
23555;SDS011;11956;53.184;8.578;2022-08-25T14:29:14;11.85;;;5.97;;
23555;SDS011;11956;53.184;8.578;2022-08-25T14:32:16;11.88;;;5.53;;
23555;SDS011;11956;53.184;8.578;2022-08-25T14:35:17;12.30;;;5.88;;
23555;SDS011;11956;53.184;8.578;2022-08-25T14:38:19;10.93;;;5.70;;
23555;SDS011;11956;53.184;8.578;2022-08-25T14:41:21;6.97;;;5.32;;
23555;SDS011;11956;53.184;8.578;2022-08-25T14:44:23;7.40;;;5.97;;
23555;SDS011;11956;53.184;8.578;2022-08-25T14:47:24;11.63;;;5.65;;
23555;SDS011;11956;53.184;8.578;2022-08-25T14:50:25;11.45;;;5.38;;
23555;SDS011;11956;53.184;8.578;2022-08-25T14:53:26;11.35;;;6.05;;
23555;SDS011;11956;53.184;8.578;2022-08-25T14:56:28;9.40;;;5.32;;
23555;SDS011;11956;53.184;8.578;2022-08-25T15:02:32;8.25;;;5.82;;
23555;SDS011;11956;53.184;8.578;2022-08-25T15:05:38;7.00;;;5.40;;
23555;SDS011;11956;53.184;8.578;2022-08-25T15:08:40;9.73;;;5.43;;
23555;SDS011;11956;53.184;8.578;2022-08-25T15:11:59;7.78;;;5.43;;
23555;SDS011;11956;53.184;8.578;2022-08-25T15:15:00;13.48;;;5.60;;
23555;SDS011;11956;53.184;8.578;2022-08-25T15:18:02;7.20;;;4.80;;
23555;SDS011;11956;53.184;8.578;2022-08-25T15:21:04;9.73;;;5.35;;
23555;SDS011;11956;53.184;8.578;2022-08-25T15:24:05;11.13;;;5.53;;
23555;SDS011;11956;53.184;8.578;2022-08-25T15:30:10;9.43;;;5.55;;
23555;SDS011;11956;53.184;8.578;2022-08-25T15:33:12;10.73;;;5.47;;
23555;SDS011;11956;53.184;8.578;2022-08-25T15:36:14;8.73;;;5.30;;
23555;SDS011;11956;53.184;8.578;2022-08-25T15:39:19;9.98;;;5.63;;
23555;SDS011;11956;53.184;8.578;2022-08-25T15:42:19;12.43;;;5.88;;
23555;SDS011;11956;53.184;8.578;2022-08-25T15:45:20;9.65;;;5.00;;
23555;SDS011;11956;53.184;8.578;2022-08-25T15:48:22;9.23;;;5.20;;
23555;SDS011;11956;53.184;8.578;2022-08-25T15:51:23;8.60;;;4.68;;
23555;SDS011;11956;53.184;8.578;2022-08-25T15:54:26;7.65;;;5.15;;
23555;SDS011;11956;53.184;8.578;2022-08-25T15:57:27;10.27;;;5.10;;
23555;SDS011;11956;53.184;8.578;2022-08-25T16:00:28;8.95;;;5.85;;
23555;SDS011;11956;53.184;8.578;2022-08-25T16:03:29;7.07;;;4.72;;
23555;SDS011;11956;53.184;8.578;2022-08-25T16:06:31;8.15;;;4.95;;
23555;SDS011;11956;53.184;8.578;2022-08-25T16:09:33;10.35;;;5.03;;
23555;SDS011;11956;53.184;8.578;2022-08-25T16:12:34;7.43;;;5.13;;
23555;SDS011;11956;53.184;8.578;2022-08-25T16:15:36;10.98;;;5.18;;
23555;SDS011;11956;53.184;8.578;2022-08-25T16:18:38;12.40;;;4.93;;
23555;SDS011;11956;53.184;8.578;2022-08-25T16:21:39;9.45;;;5.65;;
23555;SDS011;11956;53.184;8.578;2022-08-25T16:24:41;7.45;;;4.78;;
23555;SDS011;11956;53.184;8.578;2022-08-25T16:27:44;8.30;;;5.47;;
23555;SDS011;11956;53.184;8.578;2022-08-25T16:30:46;8.10;;;5.28;;
23555;SDS011;11956;53.184;8.578;2022-08-25T16:33:48;11.55;;;5.00;;
23555;SDS011;11956;53.184;8.578;2022-08-25T16:36:49;8.13;;;4.95;;
23555;SDS011;11956;53.184;8.578;2022-08-25T16:39:52;9.55;;;5.32;;
23555;SDS011;11956;53.184;8.578;2022-08-25T16:42:56;9.18;;;5.13;;
23555;SDS011;11956;53.184;8.578;2022-08-25T16:45:58;9.18;;;5.40;;
23555;SDS011;11956;53.184;8.578;2022-08-25T16:49:04;11.45;;;4.90;;
23555;SDS011;11956;53.184;8.578;2022-08-25T16:52:06;7.68;;;5.18;;
23555;SDS011;11956;53.184;8.578;2022-08-25T16:55:26;11.48;;;5.15;;
23555;SDS011;11956;53.184;8.578;2022-08-25T16:58:31;8.85;;;4.95;;
23555;SDS011;11956;53.184;8.578;2022-08-25T17:01:34;11.00;;;5.40;;
23555;SDS011;11956;53.184;8.578;2022-08-25T17:04:37;8.13;;;5.10;;
23555;SDS011;11956;53.184;8.578;2022-08-25T17:07:39;11.25;;;5.82;;
23555;SDS011;11956;53.184;8.578;2022-08-25T17:10:41;9.38;;;5.55;;
23555;SDS011;11956;53.184;8.578;2022-08-25T17:13:43;12.63;;;5.50;;
23555;SDS011;11956;53.184;8.578;2022-08-25T17:16:48;9.38;;;5.15;;
23555;SDS011;11956;53.184;8.578;2022-08-25T17:19:50;11.98;;;5.70;;
23555;SDS011;11956;53.184;8.578;2022-08-25T17:22:51;9.75;;;6.10;;
23555;SDS011;11956;53.184;8.578;2022-08-25T17:25:52;9.55;;;4.97;;
23555;SDS011;11956;53.184;8.578;2022-08-25T17:28:54;9.20;;;5.32;;
23555;SDS011;11956;53.184;8.578;2022-08-25T17:31:59;9.48;;;5.47;;
23555;SDS011;11956;53.184;8.578;2022-08-25T17:35:01;10.70;;;4.90;;
23555;SDS011;11956;53.184;8.578;2022-08-25T17:38:03;9.60;;;5.13;;
23555;SDS011;11956;53.184;8.578;2022-08-25T17:41:04;8.90;;;5.20;;
23555;SDS011;11956;53.184;8.578;2022-08-25T17:44:07;6.72;;;4.95;;
23555;SDS011;11956;53.184;8.578;2022-08-25T17:47:08;11.68;;;5.70;;
23555;SDS011;11956;53.184;8.578;2022-08-25T17:50:09;6.63;;;4.75;;
23555;SDS011;11956;53.184;8.578;2022-08-25T17:53:10;8.23;;;5.20;;
23555;SDS011;11956;53.184;8.578;2022-08-25T17:56:13;7.10;;;5.20;;
23555;SDS011;11956;53.184;8.578;2022-08-25T17:59:18;11.63;;;5.45;;
23555;SDS011;11956;53.184;8.578;2022-08-25T18:02:19;11.18;;;5.32;;
23555;SDS011;11956;53.184;8.578;2022-08-25T18:05:20;11.93;;;5.40;;
23555;SDS011;11956;53.184;8.578;2022-08-25T18:08:21;7.57;;;5.10;;
23555;SDS011;11956;53.184;8.578;2022-08-25T18:11:23;7.70;;;5.20;;
23555;SDS011;11956;53.184;8.578;2022-08-25T18:14:24;7.78;;;4.97;;
23555;SDS011;11956;53.184;8.578;2022-08-25T18:17:28;7.97;;;5.40;;
23555;SDS011;11956;53.184;8.578;2022-08-25T18:20:29;6.18;;;5.18;;
23555;SDS011;11956;53.184;8.578;2022-08-25T18:23:30;7.78;;;5.43;;
23555;SDS011;11956;53.184;8.578;2022-08-25T18:26:31;10.38;;;6.03;;
23555;SDS011;11956;53.184;8.578;2022-08-25T18:29:32;10.90;;;5.43;;
23555;SDS011;11956;53.184;8.578;2022-08-25T18:32:33;7.72;;;4.97;;
23555;SDS011;11956;53.184;8.578;2022-08-25T18:35:35;9.32;;;5.20;;
23555;SDS011;11956;53.184;8.578;2022-08-25T18:38:37;9.65;;;5.32;;
23555;SDS011;11956;53.184;8.578;2022-08-25T18:41:58;8.98;;;5.45;;
23555;SDS011;11956;53.184;8.578;2022-08-25T18:45:01;8.88;;;5.45;;
23555;SDS011;11956;53.184;8.578;2022-08-25T18:48:04;9.80;;;5.63;;
23555;SDS011;11956;53.184;8.578;2022-08-25T18:51:05;8.20;;;5.22;;
23555;SDS011;11956;53.184;8.578;2022-08-25T18:54:07;6.45;;;4.90;;
23555;SDS011;11956;53.184;8.578;2022-08-25T18:57:08;10.30;;;5.70;;
23555;SDS011;11956;53.184;8.578;2022-08-25T19:00:10;9.18;;;5.47;;
23555;SDS011;11956;53.184;8.578;2022-08-25T19:03:15;9.38;;;5.57;;
23555;SDS011;11956;53.184;8.578;2022-08-25T19:06:17;9.57;;;5.20;;
23555;SDS011;11956;53.184;8.578;2022-08-25T19:09:19;8.30;;;5.40;;
23555;SDS011;11956;53.184;8.578;2022-08-25T19:12:20;11.05;;;5.50;;
23555;SDS011;11956;53.184;8.578;2022-08-25T19:15:21;9.98;;;5.53;;
23555;SDS011;11956;53.184;8.578;2022-08-25T19:18:22;10.27;;;5.40;;
23555;SDS011;11956;53.184;8.578;2022-08-25T19:21:23;10.05;;;5.80;;
23555;SDS011;11956;53.184;8.578;2022-08-25T19:24:24;7.57;;;5.70;;
23555;SDS011;11956;53.184;8.578;2022-08-25T19:27:25;7.72;;;5.32;;
23555;SDS011;11956;53.184;8.578;2022-08-25T19:30:27;10.68;;;5.65;;
23555;SDS011;11956;53.184;8.578;2022-08-25T19:33:29;8.25;;;5.22;;
23555;SDS011;11956;53.184;8.578;2022-08-25T19:36:31;9.18;;;5.30;;
23555;SDS011;11956;53.184;8.578;2022-08-25T19:39:32;7.13;;;5.10;;
23555;SDS011;11956;53.184;8.578;2022-08-25T19:42:35;6.70;;;5.30;;
23555;SDS011;11956;53.184;8.578;2022-08-25T19:45:36;8.98;;;5.25;;
23555;SDS011;11956;53.184;8.578;2022-08-25T19:48:37;9.40;;;5.78;;
23555;SDS011;11956;53.184;8.578;2022-08-25T19:51:39;9.95;;;5.32;;
23555;SDS011;11956;53.184;8.578;2022-08-25T19:54:45;9.18;;;5.63;;
23555;SDS011;11956;53.184;8.578;2022-08-25T19:57:47;10.30;;;5.35;;
23555;SDS011;11956;53.184;8.578;2022-08-25T20:00:47;9.07;;;5.28;;
23555;SDS011;11956;53.184;8.578;2022-08-25T20:03:48;9.05;;;5.70;;
23555;SDS011;11956;53.184;8.578;2022-08-25T20:06:51;8.37;;;5.63;;
23555;SDS011;11956;53.184;8.578;2022-08-25T20:09:54;8.27;;;5.10;;
23555;SDS011;11956;53.184;8.578;2022-08-25T20:12:56;9.55;;;5.00;;
23555;SDS011;11956;53.184;8.578;2022-08-25T20:15:57;10.65;;;5.45;;
23555;SDS011;11956;53.184;8.578;2022-08-25T20:18:58;8.13;;;5.28;;